Terminal Aerodrome Forecast
Issued by NWS

Home | Current Version | Previous Version | Text Only | Print | Product List | Glossary On
Versions: 1 2 3 4 5 6 7 8 9 10 11 12 13 14 15 16 17 18 19 20 21 22 23 24 25 26 27 28 29 30 31 32 33
000
FTUS44 KOHX 182300
TAFCKV
TAF
KCKV 182326Z 1900/1924 10005KT P6SM SCT050 BKN150
     FM190700 12005KT 4SM -SHRA OVC025
     FM191000 12004KT 2SM SHRA BKN007 OVC015
     FM191800 23010G18KT P6SM VCSH OVC025
     FM192100 24010G18KT P6SM VCTS BKN050CB=

USA.gov is the U.S. government's official web portal to all federal, state and local government web resources and services.